Time;durP1;ratioP1;P1;durP2;ratioP2;P2;SDS_P1;SDS_P2;PMS_P1;PMS_P2;Temp;Humidity;BMP_temperature;BMP_pressure;BME280_temperature;BME280_humidity;BME280_pressure;Samples;Min_cycle;Max_cycle;Signal;HPM_P1;HPM_P2
2023/09/17 00:02:10;;;;;;;11.95;4.65;;;;;;;;;;5061003;28;20044;-73
2023/09/17 00:04:41;;;;;;;16.23;4.90;;;;;;;;;;5069779;28;20055;-73
2023/09/17 00:07:13;;;;;;;10.32;3.95;;;;;;;;;;5072292;28;20071;-71
2023/09/17 00:09:44;;;;;;;12.38;4.32;;;;;;;;;;5071714;28;20053;-72
2023/09/17 00:12:21;;;;;;;14.77;5.18;;;;;;;;;;5060916;28;20044;-75
2023/09/17 00:14:52;;;;;;;11.13;4.85;;;;;;;;;;5060183;28;20037;-73
2023/09/17 00:17:23;;;;;;;13.27;4.38;;;;;;;;;;5061045;28;20503;-75
2023/09/17 00:19:56;;;;;;;10.70;3.95;;;;;;;;;;5059115;28;20044;-76
2023/09/17 00:22:27;;;;;;;4.88;3.33;;;;;;;;;;5061313;28;20059;-74
2023/09/17 00:25:04;;;;;;;9.60;4.20;;;;;;;;;;5060570;28;20518;-75
2023/09/17 00:27:35;;;;;;;6.68;3.65;;;;;;;;;;5060524;28;20064;-72
2023/09/17 00:30:10;;;;;;;15.75;3.85;;;;;;;;;;5061279;28;20435;-76
2023/09/17 00:32:41;;;;;;;11.40;4.95;;;;;;;;;;5068942;28;20059;-73
2023/09/17 00:35:14;;;;;;;17.00;5.55;;;;;;;;;;5071256;28;20043;-75
2023/09/17 00:37:45;;;;;;;23.25;5.60;;;;;;;;;;5070211;28;20048;-74
2023/09/17 00:40:20;;;;;;;9.30;5.22;;;;;;;;;;5070277;28;20033;-73
2023/09/17 00:42:51;;;;;;;8.73;4.57;;;;;;;;;;5068325;28;20048;-75
2023/09/17 00:45:21;;;;;;;6.60;3.70;;;;;;;;;;5070745;28;20094;-72
2023/09/17 00:47:56;;;;;;;4.55;2.67;;;;;;;;;;5070768;28;20032;-74
2023/09/17 00:50:27;;;;;;;7.57;3.53;;;;;;;;;;5074506;28;20388;-74
2023/09/17 00:53:00;;;;;;;12.85;4.65;;;;;;;;;;5081832;28;20040;-71
2023/09/17 00:55:31;;;;;;;8.10;4.13;;;;;;;;;;5083818;28;20048;-75
2023/09/17 00:58:04;;;;;;;10.02;4.90;;;;;;;;;;5084679;28;20052;-73
2023/09/17 01:00:38;;;;;;;9.68;4.25;;;;;;;;;;5083770;28;20056;-76
2023/09/17 01:03:12;;;;;;;17.42;5.82;;;;;;;;;;5084860;28;20047;-72
2023/09/17 01:05:43;;;;;;;21.40;7.40;;;;;;;;;;5083601;28;20059;-75
2023/09/17 01:08:16;;;;;;;17.60;7.20;;;;;;;;;;5084846;28;20067;-71
2023/09/17 01:10:48;;;;;;;11.60;5.93;;;;;;;;;;5084302;28;20075;-75
2023/09/17 01:13:20;;;;;;;9.68;4.40;;;;;;;;;;5084013;28;20056;-73
2023/09/17 01:15:54;;;;;;;14.50;5.50;;;;;;;;;;5083947;28;20044;-73
2023/09/17 01:18:27;;;;;;;10.60;4.78;;;;;;;;;;5084996;28;20055;-74
2023/09/17 01:21:24;;;;;;;6.63;3.55;;;;;;;;;;5084633;28;20410;-76
2023/09/17 01:24:26;;;;;;;12.30;4.65;;;;;;;;;;5084939;28;20060;-73
2023/09/17 01:27:04;;;;;;;18.73;3.67;;;;;;;;;;5075508;28;20407;-74
2023/09/17 01:29:40;;;;;;;9.98;4.00;;;;;;;;;;5084069;28;20059;-71
2023/09/17 01:32:12;;;;;;;8.77;3.83;;;;;;;;;;5083394;28;20055;-75
2023/09/17 01:34:45;;;;;;;5.28;3.17;;;;;;;;;;5083226;28;20055;-73
2023/09/17 01:37:17;;;;;;;15.13;4.45;;;;;;;;;;5084097;28;20039;-74
2023/09/17 01:39:56;;;;;;;8.13;4.03;;;;;;;;;;5081656;28;20048;-73
2023/09/17 01:42:28;;;;;;;6.15;3.53;;;;;;;;;;5084271;28;20059;-72
2023/09/17 01:45:00;;;;;;;7.65;2.63;;;;;;;;;;5066152;28;20055;-74
2023/09/17 01:47:31;;;;;;;6.57;3.20;;;;;;;;;;5081207;28;20052;-71
2023/09/17 01:50:04;;;;;;;8.40;3.50;;;;;;;;;;5084821;28;20055;-74
2023/09/17 01:52:36;;;;;;;7.55;3.53;;;;;;;;;;5085224;28;20533;-74
2023/09/17 01:55:10;;;;;;;6.88;3.08;;;;;;;;;;5083073;28;20056;-72
2023/09/17 01:57:42;;;;;;;4.90;2.90;;;;;;;;;;5081851;28;20416;-73
2023/09/17 02:00:18;;;;;;;5.70;2.70;;;;;;;;;;5082402;28;20056;-72
2023/09/17 02:02:52;;;;;;;5.32;2.83;;;;;;;;;;5083228;28;20059;-73
2023/09/17 02:05:25;;;;;;;6.95;2.85;;;;;;;;;;5082867;28;20514;-72
2023/09/17 02:07:57;;;;;;;7.57;2.95;;;;;;;;;;5082684;28;20404;-70
2023/09/17 02:10:29;;;;;;;8.40;3.42;;;;;;;;;;5083580;28;20052;-71
2023/09/17 02:13:01;;;;;;;6.00;2.78;;;;;;;;;;5082516;28;20047;-72
2023/09/17 02:15:31;;;;;;;6.43;2.60;;;;;;;;;;5083953;28;20059;-71
2023/09/17 02:18:03;;;;;;;5.97;3.03;;;;;;;;;;5082324;28;20052;-73
2023/09/17 02:20:38;;;;;;;7.60;3.10;;;;;;;;;;5083757;28;20036;-74
2023/09/17 02:23:11;;;;;;;7.38;3.80;;;;;;;;;;5084067;28;20074;-74
2023/09/17 02:25:42;;;;;;;5.10;3.42;;;;;;;;;;5083650;28;20415;-73
2023/09/17 02:28:13;;;;;;;9.27;3.80;;;;;;;;;;5082696;28;20047;-72
2023/09/17 02:30:44;;;;;;;7.57;2.83;;;;;;;;;;5084406;28;20498;-73
2023/09/17 02:33:16;;;;;;;8.27;3.45;;;;;;;;;;5081419;28;20052;-72
2023/09/17 02:35:47;;;;;;;8.43;3.47;;;;;;;;;;5083292;28;20198;-73
2023/09/17 02:38:18;;;;;;;5.35;3.15;;;;;;;;;;5082072;28;20145;-73
2023/09/17 02:40:50;;;;;;;8.15;3.30;;;;;;;;;;5081847;28;20052;-72
2023/09/17 02:43:21;;;;;;;5.90;3.00;;;;;;;;;;5083464;28;20051;-73
2023/09/17 02:45:54;;;;;;;6.35;3.20;;;;;;;;;;5082924;28;20529;-77
2023/09/17 02:48:24;;;;;;;7.57;3.17;;;;;;;;;;5082524;28;20044;-74
2023/09/17 02:50:55;;;;;;;7.93;3.15;;;;;;;;;;5081910;28;20044;-71
2023/09/17 02:53:26;;;;;;;9.77;3.33;;;;;;;;;;5083643;28;20520;-74
2023/09/17 02:55:58;;;;;;;7.75;3.17;;;;;;;;;;5081317;28;20056;-74
2023/09/17 02:58:29;;;;;;;10.30;2.70;;;;;;;;;;5081988;28;20051;-72
2023/09/17 03:01:01;;;;;;;8.73;3.00;;;;;;;;;;5083298;28;20054;-71
2023/09/17 03:03:32;;;;;;;7.32;2.53;;;;;;;;;;5083047;28;20056;-74
2023/09/17 03:06:05;;;;;;;5.00;2.42;;;;;;;;;;5082518;28;20048;-73
2023/09/17 03:08:43;;;;;;;7.47;3.03;;;;;;;;;;5080859;28;20052;-74
2023/09/17 03:11:17;;;;;;;7.45;3.17;;;;;;;;;;5081282;28;20059;-74
2023/09/17 03:13:50;;;;;;;8.35;4.40;;;;;;;;;;5080571;28;20767;-73
2023/09/17 03:16:21;;;;;;;16.10;4.00;;;;;;;;;;5082775;28;20048;-74
2023/09/17 03:18:52;;;;;;;14.93;4.07;;;;;;;;;;5082673;28;20047;-73
2023/09/17 03:21:24;;;;;;;9.50;3.58;;;;;;;;;;5081022;28;20063;-71
2023/09/17 03:23:54;;;;;;;8.23;4.07;;;;;;;;;;5081526;28;20060;-74
2023/09/17 03:26:25;;;;;;;6.50;3.05;;;;;;;;;;5082717;28;20792;-72
2023/09/17 03:28:56;;;;;;;9.90;4.40;;;;;;;;;;5082455;28;20058;-72
2023/09/17 03:31:29;;;;;;;8.73;3.90;;;;;;;;;;5080923;28;20055;-72
2023/09/17 03:34:01;;;;;;;9.48;4.13;;;;;;;;;;5080952;28;20519;-73
2023/09/17 03:36:35;;;;;;;12.60;4.35;;;;;;;;;;5080812;28;20418;-71
2023/09/17 03:39:06;;;;;;;11.45;4.18;;;;;;;;;;5081139;28;20052;-73
2023/09/17 03:41:40;;;;;;;8.82;4.70;;;;;;;;;;5080332;28;20056;-74
2023/09/17 03:44:10;;;;;;;7.53;4.20;;;;;;;;;;5080600;28;20060;-71
2023/09/17 03:46:41;;;;;;;13.57;4.35;;;;;;;;;;5080985;28;20590;-74
2023/09/17 03:49:13;;;;;;;12.77;4.63;;;;;;;;;;5080883;28;20068;-71
2023/09/17 03:51:43;;;;;;;6.50;4.07;;;;;;;;;;5081524;28;20044;-74
2023/09/17 03:54:16;;;;;;;11.27;5.07;;;;;;;;;;5080598;28;20055;-71
2023/09/17 03:56:46;;;;;;;12.52;3.60;;;;;;;;;;5080144;28;20419;-71
2023/09/17 03:59:17;;;;;;;6.97;3.30;;;;;;;;;;5079564;28;20048;-74
2023/09/17 04:01:48;;;;;;;12.98;4.03;;;;;;;;;;5080305;28;20058;-72
2023/09/17 04:04:19;;;;;;;7.18;4.07;;;;;;;;;;5080431;28;20048;-71
2023/09/17 04:06:51;;;;;;;5.78;3.80;;;;;;;;;;5080257;28;20062;-71
2023/09/17 04:09:22;;;;;;;10.82;3.83;;;;;;;;;;5082075;28;20051;-70
2023/09/17 04:11:53;;;;;;;8.63;3.40;;;;;;;;;;5079962;28;20445;-72
2023/09/17 04:14:23;;;;;;;5.60;3.13;;;;;;;;;;5079705;28;20052;-74
2023/09/17 04:16:55;;;;;;;8.02;3.30;;;;;;;;;;5080773;28;20519;-72
2023/09/17 04:19:26;;;;;;;4.75;2.63;;;;;;;;;;5082241;28;20040;-73
2023/09/17 04:21:57;;;;;;;5.53;3.22;;;;;;;;;;5081151;28;20616;-73
2023/09/17 04:24:28;;;;;;;7.72;3.28;;;;;;;;;;5080388;28;20455;-71
2023/09/17 04:26:59;;;;;;;7.63;2.90;;;;;;;;;;5082223;28;20384;-73
2023/09/17 04:29:30;;;;;;;7.55;3.47;;;;;;;;;;5085283;28;20063;-71
2023/09/17 04:32:01;;;;;;;6.57;3.63;;;;;;;;;;5067390;28;20071;-73
2023/09/17 04:34:32;;;;;;;5.47;2.67;;;;;;;;;;5085896;28;20067;-73
2023/09/17 04:37:03;;;;;;;5.97;3.08;;;;;;;;;;5085207;28;20048;-72
2023/09/17 04:39:35;;;;;;;7.85;3.10;;;;;;;;;;5085791;28;20509;-75
2023/09/17 04:42:23;;;;;;;7.35;3.55;;;;;;;;;;5083784;28;20052;-71
2023/09/17 04:44:53;;;;;;;8.77;4.47;;;;;;;;;;5085898;28;20043;-74
2023/09/17 04:47:27;;;;;;;7.32;3.58;;;;;;;;;;5083767;28;20052;-72
2023/09/17 04:49:57;;;;;;;12.80;4.78;;;;;;;;;;5085696;28;20051;-72
2023/09/17 04:52:28;;;;;;;8.35;4.85;;;;;;;;;;5085735;28;20055;-73
2023/09/17 04:55:00;;;;;;;10.38;5.57;;;;;;;;;;5084244;28;20526;-73
2023/09/17 04:57:30;;;;;;;10.65;5.32;;;;;;;;;;5083426;28;20051;-73
2023/09/17 05:00:10;;;;;;;11.85;6.70;;;;;;;;;;5083832;28;20052;-73
2023/09/17 05:02:42;;;;;;;10.73;5.18;;;;;;;;;;5085318;28;20600;-72
2023/09/17 05:05:17;;;;;;;10.32;5.10;;;;;;;;;;5082928;28;20434;-73
2023/09/17 05:07:49;;;;;;;7.20;4.68;;;;;;;;;;5085462;28;20525;-73
2023/09/17 05:10:19;;;;;;;11.07;5.30;;;;;;;;;;5084735;28;20048;-72
2023/09/17 05:12:51;;;;;;;14.95;5.30;;;;;;;;;;5082987;28;20415;-71
2023/09/17 05:15:22;;;;;;;17.85;8.00;;;;;;;;;;5083087;28;20059;-72
2023/09/17 05:17:55;;;;;;;20.48;11.30;;;;;;;;;;5067370;28;20051;-72
2023/09/17 05:20:26;;;;;;;23.15;11.60;;;;;;;;;;5083725;28;20048;-72
2023/09/17 05:22:59;;;;;;;30.92;13.02;;;;;;;;;;5083065;28;20052;-73
2023/09/17 05:25:30;;;;;;;26.77;11.50;;;;;;;;;;5083583;28;20052;-73
2023/09/17 05:28:06;;;;;;;19.75;9.10;;;;;;;;;;5083421;28;20063;-74
2023/09/17 05:30:37;;;;;;;23.60;10.85;;;;;;;;;;5083330;28;20071;-71
2023/09/17 05:33:10;;;;;;;15.00;8.40;;;;;;;;;;5081460;28;20048;-71
2023/09/17 05:35:42;;;;;;;15.50;9.10;;;;;;;;;;5083032;28;20060;-72
2023/09/17 05:38:12;;;;;;;13.02;7.57;;;;;;;;;;5082894;28;20055;-72
2023/09/17 05:40:42;;;;;;;14.73;7.15;;;;;;;;;;5083586;28;20059;-72
2023/09/17 05:43:13;;;;;;;8.20;5.07;;;;;;;;;;5084415;28;20040;-74
2023/09/17 05:45:44;;;;;;;10.15;5.18;;;;;;;;;;5084427;28;20479;-72
2023/09/17 05:48:19;;;;;;;10.18;3.63;;;;;;;;;;5083078;28;20431;-72
2023/09/17 05:50:52;;;;;;;11.20;4.93;;;;;;;;;;5082938;28;20048;-73
2023/09/17 05:53:31;;;;;;;9.50;4.95;;;;;;;;;;5082557;28;20052;-72
2023/09/17 05:56:04;;;;;;;13.05;5.28;;;;;;;;;;5082567;28;20530;-71
2023/09/17 05:58:34;;;;;;;6.00;3.90;;;;;;;;;;5084255;28;20499;-73
2023/09/17 06:01:07;;;;;;;10.40;3.72;;;;;;;;;;5082501;28;20047;-71
2023/09/17 06:03:38;;;;;;;7.72;3.45;;;;;;;;;;5084338;28;20055;-72
2023/09/17 06:06:09;;;;;;;7.90;4.57;;;;;;;;;;5081557;28;20529;-70
2023/09/17 06:08:41;;;;;;;8.80;4.13;;;;;;;;;;5083431;28;20048;-72
2023/09/17 06:11:13;;;;;;;9.20;5.25;;;;;;;;;;5082704;28;20054;-72
2023/09/17 06:13:43;;;;;;;7.32;5.30;;;;;;;;;;5082426;28;20055;-72
2023/09/17 06:16:15;;;;;;;6.50;3.60;;;;;;;;;;5081634;28;20422;-73
2023/09/17 06:18:47;;;;;;;7.95;4.45;;;;;;;;;;5083134;28;20056;-72
2023/09/17 06:21:18;;;;;;;8.32;4.72;;;;;;;;;;5083771;28;20055;-73
2023/09/17 06:23:48;;;;;;;11.40;5.20;;;;;;;;;;5081648;28;20521;-71
2023/09/17 06:26:19;;;;;;;15.25;4.72;;;;;;;;;;5083068;28;20724;-71
2023/09/17 06:28:50;;;;;;;9.85;4.50;;;;;;;;;;5083731;28;20051;-72
2023/09/17 06:31:21;;;;;;;6.20;3.67;;;;;;;;;;5083489;28;20052;-72
2023/09/17 06:33:51;;;;;;;6.60;4.25;;;;;;;;;;5081934;28;20071;-73
2023/09/17 06:36:23;;;;;;;5.97;3.55;;;;;;;;;;5083337;28;20044;-72
2023/09/17 06:38:57;;;;;;;5.32;3.20;;;;;;;;;;5081749;28;20055;-73
2023/09/17 06:41:28;;;;;;;7.82;4.03;;;;;;;;;;5082603;28;20062;-71
2023/09/17 06:43:59;;;;;;;5.57;2.92;;;;;;;;;;5081500;28;20418;-73
2023/09/17 06:46:30;;;;;;;6.07;3.13;;;;;;;;;;5083516;28;20046;-74
2023/09/17 06:49:01;;;;;;;6.75;3.58;;;;;;;;;;5083493;28;20067;-72
2023/09/17 06:51:32;;;;;;;7.72;3.70;;;;;;;;;;5083476;28;20048;-74
2023/09/17 06:54:03;;;;;;;3.97;2.50;;;;;;;;;;5083098;28;20418;-74
2023/09/17 06:56:34;;;;;;;4.68;2.83;;;;;;;;;;5083395;28;20052;-73
2023/09/17 06:59:05;;;;;;;5.95;2.90;;;;;;;;;;5082921;28;20040;-72
2023/09/17 07:01:36;;;;;;;5.00;2.72;;;;;;;;;;5082933;28;20066;-70
2023/09/17 07:04:07;;;;;;;4.60;2.60;;;;;;;;;;5083064;28;20055;-73
2023/09/17 07:06:42;;;;;;;4.85;3.05;;;;;;;;;;5082950;28;20063;-72
2023/09/17 07:09:13;;;;;;;4.40;2.95;;;;;;;;;;5082428;28;20048;-72
2023/09/17 07:11:43;;;;;;;8.88;2.90;;;;;;;;;;5082473;28;20048;-72
2023/09/17 07:14:13;;;;;;;5.75;2.88;;;;;;;;;;5082748;28;20051;-71
2023/09/17 07:16:44;;;;;;;3.92;2.70;;;;;;;;;;5083215;28;20044;-71
2023/09/17 07:19:15;;;;;;;4.97;3.05;;;;;;;;;;5081033;28;20175;-73
2023/09/17 07:21:46;;;;;;;4.32;2.58;;;;;;;;;;5082904;28;20048;-73
2023/09/17 07:24:16;;;;;;;6.20;2.72;;;;;;;;;;5082097;28;20059;-71
2023/09/17 07:26:47;;;;;;;7.32;2.65;;;;;;;;;;5082511;28;20060;-72
2023/09/17 07:29:18;;;;;;;7.78;2.67;;;;;;;;;;5082370;28;20052;-71
2023/09/17 07:31:48;;;;;;;6.25;2.33;;;;;;;;;;5081569;28;20048;-71
2023/09/17 07:34:18;;;;;;;7.80;2.85;;;;;;;;;;5082547;28;20414;-73
2023/09/17 07:36:49;;;;;;;4.20;2.80;;;;;;;;;;5083073;28;20059;-73
2023/09/17 07:39:21;;;;;;;6.95;2.97;;;;;;;;;;5082980;28;20051;-71
2023/09/17 07:41:51;;;;;;;4.43;2.65;;;;;;;;;;5082947;28;20044;-71
2023/09/17 07:44:22;;;;;;;6.38;2.85;;;;;;;;;;5081794;28;20487;-71
2023/09/17 07:46:53;;;;;;;5.95;3.60;;;;;;;;;;5080695;28;20055;-71
2023/09/17 07:49:27;;;;;;;10.07;2.88;;;;;;;;;;5081768;28;20055;-71
2023/09/17 07:51:59;;;;;;;8.70;3.10;;;;;;;;;;5081934;28;20059;-73
2023/09/17 07:54:30;;;;;;;5.85;3.17;;;;;;;;;;5081718;28;20541;-72
2023/09/17 07:57:00;;;;;;;6.43;3.03;;;;;;;;;;5081303;28;20044;-72
2023/09/17 07:59:31;;;;;;;4.80;3.03;;;;;;;;;;5082360;28;20051;-73
2023/09/17 08:02:03;;;;;;;6.22;3.10;;;;;;;;;;5082101;28;20052;-74
2023/09/17 08:04:34;;;;;;;6.63;2.95;;;;;;;;;;5082221;28;20510;-71
2023/09/17 08:07:05;;;;;;;4.85;2.53;;;;;;;;;;5081515;28;20040;-72
2023/09/17 08:09:36;;;;;;;4.32;2.47;;;;;;;;;;5081195;28;20059;-74
2023/09/17 08:12:06;;;;;;;4.50;2.55;;;;;;;;;;5081882;28;20400;-73
2023/09/17 08:14:44;;;;;;;8.07;3.55;;;;;;;;;;5082797;28;20044;-73
2023/09/17 08:17:14;;;;;;;16.13;7.35;;;;;;;;;;5081876;28;20529;-73
2023/09/17 08:19:45;;;;;;;15.85;6.90;;;;;;;;;;5081602;28;20636;-73
2023/09/17 08:22:16;;;;;;;20.70;11.52;;;;;;;;;;5081535;28;20055;-73
2023/09/17 08:24:47;;;;;;;20.58;10.38;;;;;;;;;;5079943;28;20060;-74
2023/09/17 08:27:18;;;;;;;19.73;10.50;;;;;;;;;;5081033;28;20055;-72
2023/09/17 08:29:49;;;;;;;16.50;8.68;;;;;;;;;;5081771;28;20044;-72
2023/09/17 08:32:20;;;;;;;19.00;7.72;;;;;;;;;;5081577;28;20055;-73
2023/09/17 08:34:50;;;;;;;14.38;8.23;;;;;;;;;;5081365;28;20403;-71
2023/09/17 08:37:20;;;;;;;10.93;5.55;;;;;;;;;;5081262;28;20325;-73
2023/09/17 08:39:53;;;;;;;8.43;3.83;;;;;;;;;;5081600;28;20052;-72
2023/09/17 08:42:26;;;;;;;8.60;4.00;;;;;;;;;;5081738;28;20059;-71
2023/09/17 08:44:58;;;;;;;9.35;3.83;;;;;;;;;;5081549;28;20083;-74
2023/09/17 08:47:28;;;;;;;6.72;3.63;;;;;;;;;;5081507;28;20047;-74
2023/09/17 08:49:59;;;;;;;8.45;4.88;;;;;;;;;;5081761;28;20044;-72
2023/09/17 08:52:34;;;;;;;9.05;4.25;;;;;;;;;;5081462;28;20048;-73
2023/09/17 08:55:08;;;;;;;11.88;4.60;;;;;;;;;;5081217;28;20056;-72
2023/09/17 08:57:42;;;;;;;7.55;3.88;;;;;;;;;;5081806;28;20051;-73
2023/09/17 09:00:17;;;;;;;5.22;3.10;;;;;;;;;;5080004;28;20052;-73
2023/09/17 09:03:03;;;;;;;8.70;3.78;;;;;;;;;;5079978;28;20052;-73
2023/09/17 09:05:35;;;;;;;6.78;3.70;;;;;;;;;;5081822;28;20052;-73
2023/09/17 09:08:06;;;;;;;9.00;3.58;;;;;;;;;;5080993;28;20545;-70
2023/09/17 09:10:37;;;;;;;7.65;2.90;;;;;;;;;;5081458;28;20051;-71
2023/09/17 09:13:08;;;;;;;5.40;2.63;;;;;;;;;;5081420;28;20514;-73
2023/09/17 09:15:41;;;;;;;9.00;3.40;;;;;;;;;;5084585;28;20568;-73
2023/09/17 09:18:11;;;;;;;6.82;2.53;;;;;;;;;;5084565;28;20047;-71
2023/09/17 09:20:42;;;;;;;3.90;2.70;;;;;;;;;;5084785;28;20044;-73
2023/09/17 09:23:13;;;;;;;4.75;2.83;;;;;;;;;;5085125;28;20059;-71
2023/09/17 09:25:45;;;;;;;3.85;2.28;;;;;;;;;;5084583;28;20795;-72
2023/09/17 09:28:16;;;;;;;4.15;2.88;;;;;;;;;;5084874;28;20048;-72
2023/09/17 09:30:47;;;;;;;4.20;2.28;;;;;;;;;;5084267;28;20069;-73
2023/09/17 09:33:21;;;;;;;3.97;2.65;;;;;;;;;;5084637;28;20044;-73
2023/09/17 09:35:53;;;;;;;3.80;2.90;;;;;;;;;;5085505;28;21139;-73
2023/09/17 09:38:23;;;;;;;5.18;2.47;;;;;;;;;;5084765;28;20495;-74
2023/09/17 09:40:55;;;;;;;5.47;2.90;;;;;;;;;;5083632;28;20063;-73
2023/09/17 09:43:31;;;;;;;5.22;2.30;;;;;;;;;;5084161;28;20056;-72
2023/09/17 09:46:06;;;;;;;4.85;3.08;;;;;;;;;;5084317;28;20616;-71
2023/09/17 09:48:41;;;;;;;4.38;2.03;;;;;;;;;;5084406;28;20059;-72
2023/09/17 09:51:12;;;;;;;5.75;2.75;;;;;;;;;;5084425;28;20055;-70
2023/09/17 09:53:44;;;;;;;4.85;2.55;;;;;;;;;;5083768;28;20052;-72
2023/09/17 09:56:15;;;;;;;4.32;2.33;;;;;;;;;;5084674;28;20048;-72
2023/09/17 09:58:46;;;;;;;6.95;2.40;;;;;;;;;;5082818;28;20074;-75
2023/09/17 10:01:17;;;;;;;5.82;2.88;;;;;;;;;;5082558;28;20052;-74
2023/09/17 10:03:50;;;;;;;6.18;2.63;;;;;;;;;;5084268;28;20794;-72
2023/09/17 10:06:23;;;;;;;4.93;2.40;;;;;;;;;;5083652;28;20063;-75
2023/09/17 10:08:54;;;;;;;7.05;2.45;;;;;;;;;;5084379;28;20036;-73
2023/09/17 10:11:27;;;;;;;6.13;2.40;;;;;;;;;;5084749;28;20044;-72
2023/09/17 10:14:08;;;;;;;4.82;2.70;;;;;;;;;;5084214;28;20054;-74
2023/09/17 10:16:40;;;;;;;6.22;2.67;;;;;;;;;;5084151;28;20055;-75
2023/09/17 10:19:18;;;;;;;8.38;3.10;;;;;;;;;;5083672;28;20044;-72
2023/09/17 10:21:54;;;;;;;5.72;2.30;;;;;;;;;;5082346;28;20063;-73
2023/09/17 10:24:27;;;;;;;5.68;2.53;;;;;;;;;;5083897;28;20074;-72
2023/09/17 10:26:59;;;;;;;7.72;2.30;;;;;;;;;;5082081;28;20056;-75
2023/09/17 10:29:31;;;;;;;9.63;2.95;;;;;;;;;;5084165;28;20033;-73
2023/09/17 10:32:04;;;;;;;5.15;2.38;;;;;;;;;;5083448;28;20052;-73
2023/09/17 10:34:35;;;;;;;8.38;2.33;;;;;;;;;;5084110;28;21123;-74
2023/09/17 10:37:07;;;;;;;5.93;2.83;;;;;;;;;;5083654;28;20063;-72
2023/09/17 10:39:38;;;;;;;11.60;2.70;;;;;;;;;;5083756;28;20399;-73
2023/09/17 10:42:13;;;;;;;8.27;2.78;;;;;;;;;;5083519;28;20395;-74
2023/09/17 10:44:45;;;;;;;6.88;3.60;;;;;;;;;;5082370;28;20059;-72
2023/09/17 10:47:18;;;;;;;13.82;3.63;;;;;;;;;;5083223;28;20051;-72
2023/09/17 10:49:49;;;;;;;9.90;3.28;;;;;;;;;;5083638;28;20043;-74
2023/09/17 10:52:21;;;;;;;6.68;3.25;;;;;;;;;;5083117;28;20419;-74
2023/09/17 10:54:53;;;;;;;11.63;3.30;;;;;;;;;;5083533;28;20419;-72
2023/09/17 10:57:47;;;;;;;7.25;4.32;;;;;;;;;;5083269;28;20052;-75
2023/09/17 11:00:22;;;;;;;7.45;3.60;;;;;;;;;;5082778;28;20597;-75
2023/09/17 11:02:58;;;;;;;9.07;4.03;;;;;;;;;;5081559;28;20052;-73
2023/09/17 11:05:32;;;;;;;11.10;4.32;;;;;;;;;;5082996;28;20075;-71
2023/09/17 11:08:04;;;;;;;6.97;4.00;;;;;;;;;;5083229;28;20479;-75
2023/09/17 11:10:41;;;;;;;6.55;3.58;;;;;;;;;;5082409;28;20044;-75
2023/09/17 11:13:13;;;;;;;7.57;4.00;;;;;;;;;;5082589;28;20048;-73
2023/09/17 11:15:45;;;;;;;8.82;3.72;;;;;;;;;;5083004;28;20051;-75
2023/09/17 11:18:17;;;;;;;7.38;3.97;;;;;;;;;;5082404;28;20051;-73
2023/09/17 11:21:06;;;;;;;8.13;3.22;;;;;;;;;;5082599;28;20051;-73
2023/09/17 11:23:45;;;;;;;6.32;3.30;;;;;;;;;;5082241;28;20384;-73
2023/09/17 11:26:29;;;;;;;9.27;3.55;;;;;;;;;;5082573;28;20047;-75
2023/09/17 11:29:03;;;;;;;12.38;3.70;;;;;;;;;;5082546;28;20036;-76
2023/09/17 11:32:01;;;;;;;5.20;3.22;;;;;;;;;;5082413;28;20403;-74
2023/09/17 11:34:34;;;;;;;6.30;3.55;;;;;;;;;;5075891;28;20056;-75
2023/09/17 11:37:06;;;;;;;9.57;3.30;;;;;;;;;;5083141;28;20381;-74
2023/09/17 11:39:38;;;;;;;6.88;3.78;;;;;;;;;;5080786;28;20710;-75
2023/09/17 11:42:12;;;;;;;7.55;4.10;;;;;;;;;;5081642;28;20499;-74
2023/09/17 11:44:45;;;;;;;10.63;4.22;;;;;;;;;;5081665;28;20048;-74
2023/09/17 11:47:18;;;;;;;6.60;3.75;;;;;;;;;;5080583;28;20055;-74
2023/09/17 11:49:50;;;;;;;5.95;3.10;;;;;;;;;;5081985;28;20688;-73
2023/09/17 11:52:22;;;;;;;5.55;3.63;;;;;;;;;;5081962;28;20050;-75
2023/09/17 11:55:03;;;;;;;5.55;3.65;;;;;;;;;;5082172;28;20513;-73
2023/09/17 11:57:36;;;;;;;4.35;3.28;;;;;;;;;;5082348;28;20530;-74
2023/09/17 12:00:09;;;;;;;7.93;3.53;;;;;;;;;;5082859;28;20135;-74
2023/09/17 12:02:43;;;;;;;10.10;3.30;;;;;;;;;;5082117;28;20051;-71
2023/09/17 12:05:14;;;;;;;9.82;3.28;;;;;;;;;;5081444;28;20502;-74
2023/09/17 12:07:47;;;;;;;11.02;3.65;;;;;;;;;;5083069;28;20052;-74
2023/09/17 12:10:26;;;;;;;6.95;2.92;;;;;;;;;;5082614;28;20047;-74
2023/09/17 12:12:58;;;;;;;4.68;3.15;;;;;;;;;;5082473;28;20055;-74
2023/09/17 12:15:33;;;;;;;6.07;3.08;;;;;;;;;;5080191;28;20529;-73
2023/09/17 12:18:04;;;;;;;9.95;2.83;;;;;;;;;;5081287;28;20070;-74
2023/09/17 12:20:59;;;;;;;7.88;3.00;;;;;;;;;;5082166;28;20044;-73
2023/09/17 12:23:54;;;;;;;7.35;2.88;;;;;;;;;;5081595;28;20056;-77
2023/09/17 12:29:47;;;;;;;8.98;3.03;;;;;;;;;;5081290;28;20886;-74
2023/09/17 12:32:24;;;;;;;8.88;3.30;;;;;;;;;;5082297;28;20051;-73
2023/09/17 12:34:56;;;;;;;5.95;2.70;;;;;;;;;;5082953;28;20055;-73
2023/09/17 12:37:28;;;;;;;6.95;2.70;;;;;;;;;;5081530;28;20051;-75
2023/09/17 12:39:59;;;;;;;7.80;3.30;;;;;;;;;;5081903;28;20043;-73
2023/09/17 12:42:29;;;;;;;6.20;3.00;;;;;;;;;;5081522;28;20052;-74
2023/09/17 12:45:05;;;;;;;5.50;2.50;;;;;;;;;;5081966;28;20040;-74
2023/09/17 12:47:36;;;;;;;6.88;2.45;;;;;;;;;;5081795;28;20075;-73
2023/09/17 12:50:07;;;;;;;6.63;2.90;;;;;;;;;;5084416;28;20044;-79
2023/09/17 12:52:38;;;;;;;5.35;2.90;;;;;;;;;;5086035;28;20048;-75
2023/09/17 12:55:09;;;;;;;4.85;2.72;;;;;;;;;;5083548;28;20056;-73
2023/09/17 12:57:40;;;;;;;5.70;2.55;;;;;;;;;;5086181;28;20070;-74
2023/09/17 13:00:12;;;;;;;8.95;3.30;;;;;;;;;;5085168;28;20052;-74
2023/09/17 13:02:43;;;;;;;5.75;2.88;;;;;;;;;;5084926;28;20063;-74
2023/09/17 13:05:21;;;;;;;7.03;2.30;;;;;;;;;;5085283;28;20044;-74
2023/09/17 13:07:52;;;;;;;8.52;2.83;;;;;;;;;;5085105;28;20047;-74
2023/09/17 13:10:23;;;;;;;6.63;2.88;;;;;;;;;;5083612;28;20055;-74
2023/09/17 13:12:55;;;;;;;7.95;3.97;;;;;;;;;;5086254;28;20055;-77
2023/09/17 13:15:25;;;;;;;6.10;3.00;;;;;;;;;;5084766;28;20059;-75
2023/09/17 13:17:56;;;;;;;5.22;3.03;;;;;;;;;;5082674;28;20055;-74
2023/09/17 13:20:27;;;;;;;5.90;2.58;;;;;;;;;;5083849;28;20059;-74
2023/09/17 13:22:58;;;;;;;4.53;2.35;;;;;;;;;;5083676;28;20055;-74
2023/09/17 13:25:30;;;;;;;6.82;2.90;;;;;;;;;;5084286;28;20063;-74
2023/09/17 13:28:12;;;;;;;6.10;3.05;;;;;;;;;;5084572;28;20048;-75
2023/09/17 13:30:43;;;;;;;6.93;2.88;;;;;;;;;;5084897;28;20522;-74
2023/09/17 13:33:15;;;;;;;5.30;2.38;;;;;;;;;;5084408;28;20048;-74
2023/09/17 13:35:51;;;;;;;8.15;3.28;;;;;;;;;;5083082;28;20052;-74
2023/09/17 13:38:22;;;;;;;8.02;3.10;;;;;;;;;;5082985;28;20070;-74
2023/09/17 13:40:53;;;;;;;4.63;2.78;;;;;;;;;;5084147;28;20044;-74
2023/09/17 13:43:23;;;;;;;11.25;3.30;;;;;;;;;;5084558;28;20044;-74
2023/09/17 13:46:01;;;;;;;7.25;2.70;;;;;;;;;;5084655;28;20422;-74
2023/09/17 13:48:32;;;;;;;7.65;2.95;;;;;;;;;;5084776;28;20422;-74
2023/09/17 13:51:03;;;;;;;7.15;2.97;;;;;;;;;;5084340;28;20040;-74
2023/09/17 13:53:34;;;;;;;5.57;2.90;;;;;;;;;;5084470;28;20050;-74
2023/09/17 13:56:06;;;;;;;9.18;2.78;;;;;;;;;;5076713;28;20052;-74
2023/09/17 13:58:37;;;;;;;5.25;2.72;;;;;;;;;;5073610;28;20597;-75
2023/09/17 14:01:08;;;;;;;5.25;2.97;;;;;;;;;;5071534;28;20044;-74
2023/09/17 14:03:39;;;;;;;6.35;3.40;;;;;;;;;;5076583;28;20838;-74
2023/09/17 14:06:09;;;;;;;5.70;2.97;;;;;;;;;;5068347;28;20051;-74
2023/09/17 14:08:41;;;;;;;4.88;3.13;;;;;;;;;;5065560;28;20044;-75
2023/09/17 14:11:12;;;;;;;10.35;3.30;;;;;;;;;;5063274;28;20812;-76
2023/09/17 14:13:42;;;;;;;6.55;3.25;;;;;;;;;;5063462;28;20518;-74
2023/09/17 14:16:14;;;;;;;5.38;3.03;;;;;;;;;;5062975;28;20530;-74
2023/09/17 14:18:44;;;;;;;4.22;3.00;;;;;;;;;;5062463;28;20525;-75
2023/09/17 14:21:15;;;;;;;5.32;2.92;;;;;;;;;;5063990;28;20044;-75
2023/09/17 14:23:46;;;;;;;5.68;3.00;;;;;;;;;;5063915;28;20507;-73
2023/09/17 14:26:17;;;;;;;11.88;4.75;;;;;;;;;;5061204;28;20056;-73
2023/09/17 14:28:49;;;;;;;9.93;3.40;;;;;;;;;;5066381;28;20047;-73
2023/09/17 14:31:20;;;;;;;7.57;3.70;;;;;;;;;;5063535;28;20044;-75
2023/09/17 14:33:50;;;;;;;6.13;3.20;;;;;;;;;;5064099;28;20045;-74
2023/09/17 14:36:21;;;;;;;4.53;3.10;;;;;;;;;;5063152;28;20052;-73
2023/09/17 14:38:51;;;;;;;6.57;3.25;;;;;;;;;;5061773;28;20053;-73
2023/09/17 14:41:28;;;;;;;4.57;3.17;;;;;;;;;;5063046;28;20049;-74
2023/09/17 14:44:00;;;;;;;5.55;3.40;;;;;;;;;;5063153;28;20049;-73
2023/09/17 14:46:32;;;;;;;5.80;3.30;;;;;;;;;;5065534;28;20523;-73
2023/09/17 14:49:04;;;;;;;4.75;3.40;;;;;;;;;;5074176;28;20047;-73
2023/09/17 14:51:35;;;;;;;7.95;4.10;;;;;;;;;;5072886;28;20055;-76
2023/09/17 14:54:08;;;;;;;4.63;3.50;;;;;;;;;;5081170;28;20048;-73
2023/09/17 14:56:38;;;;;;;11.10;3.88;;;;;;;;;;5083039;28;20051;-75
2023/09/17 14:59:09;;;;;;;5.15;3.35;;;;;;;;;;5083093;28;20040;-75
2023/09/17 15:01:39;;;;;;;7.68;3.58;;;;;;;;;;5065084;28;20115;-75
2023/09/17 15:04:27;;;;;;;10.10;4.15;;;;;;;;;;5063491;28;20048;-75
2023/09/17 15:06:58;;;;;;;9.77;3.38;;;;;;;;;;5063036;28;20044;-74
2023/09/17 15:09:29;;;;;;;5.88;3.60;;;;;;;;;;5062561;28;20055;-74
2023/09/17 15:12:00;;;;;;;5.68;3.95;;;;;;;;;;5066377;28;20423;-75
2023/09/17 15:14:30;;;;;;;5.68;3.85;;;;;;;;;;5062117;28;20055;-73
2023/09/17 15:17:02;;;;;;;7.53;4.10;;;;;;;;;;5062940;28;20059;-75